Bartley, Nebraska
Current Conditions -  °F | °C
As of 6:22 AM on Friday 19 Dec 2014 (Local Time) from KMCK Reporting Station
Haze Haze  
Wind Chill:   Ceiling: Unl
Heat Index: 15°   Visibility: 0.75mi
Dew Point: 13°   Wind: 5mph
Humidity: 91%   Direction: 240°WSW
Pressure: 30.12"   Gusts: NA
Location:  40.25°N, 100.31°W
Report Text: KMCK 191222Z AUTO 24004KT 3/4SM BR CLR M09/M11 A3012 RMK AO2 I1001 T10941106
Loading
Personal Weather Stations






























Interactive Weather Map New forecast layout! Learn more

10-Day Weather Forecast

Advertisements
Track Severe Weather on mobile